sensor_id;sensor_type;location;lat;lon;timestamp;P1;durP1;ratioP1;P2;durP2;ratioP2
71174;SDS011;58876;51.994;4.472;2024-03-23T00:56:10;7.29;;;6.16;;
71174;SDS011;58876;51.994;4.472;2024-03-23T00:58:35;6.75;;;5.87;;
71174;SDS011;58876;51.994;4.472;2024-03-23T01:01:01;6.84;;;6.02;;
71174;SDS011;58876;51.994;4.472;2024-03-23T01:03:28;7.74;;;6.53;;
71174;SDS011;58876;51.994;4.472;2024-03-23T01:05:58;7.57;;;6.28;;
71174;SDS011;58876;51.994;4.472;2024-03-23T01:08:24;7.06;;;6.02;;
71174;SDS011;58876;51.994;4.472;2024-03-23T01:10:59;6.75;;;5.81;;
71174;SDS011;58876;51.994;4.472;2024-03-23T01:13:29;6.34;;;5.39;;
71174;SDS011;58876;51.994;4.472;2024-03-23T01:15:55;7.28;;;5.90;;
71174;SDS011;58876;51.994;4.472;2024-03-23T01:18:22;6.99;;;5.69;;
71174;SDS011;58876;51.994;4.472;2024-03-23T01:20:48;6.31;;;5.14;;
71174;SDS011;58876;51.994;4.472;2024-03-23T01:23:14;5.76;;;4.65;;
71174;SDS011;58876;51.994;4.472;2024-03-23T01:25:40;6.10;;;4.72;;
71174;SDS011;58876;51.994;4.472;2024-03-23T01:28:06;6.39;;;4.79;;
71174;SDS011;58876;51.994;4.472;2024-03-23T01:30:31;6.61;;;4.90;;
71174;SDS011;58876;51.994;4.472;2024-03-23T01:33:00;6.35;;;4.75;;
71174;SDS011;58876;51.994;4.472;2024-03-23T01:35:26;7.00;;;5.07;;
71174;SDS011;58876;51.994;4.472;2024-03-23T01:37:51;6.83;;;4.95;;
71174;SDS011;58876;51.994;4.472;2024-03-23T01:40:17;6.85;;;4.94;;
71174;SDS011;58876;51.994;4.472;2024-03-23T01:42:54;6.31;;;4.57;;
71174;SDS011;58876;51.994;4.472;2024-03-23T01:45:20;6.06;;;4.37;;
71174;SDS011;58876;51.994;4.472;2024-03-23T01:47:46;7.25;;;5.10;;
71174;SDS011;58876;51.994;4.472;2024-03-23T01:50:11;6.37;;;4.45;;
71174;SDS011;58876;51.994;4.472;2024-03-23T01:52:37;6.32;;;4.35;;
71174;SDS011;58876;51.994;4.472;2024-03-23T01:55:02;6.79;;;4.60;;
71174;SDS011;58876;51.994;4.472;2024-03-23T01:57:28;7.02;;;4.77;;
71174;SDS011;58876;51.994;4.472;2024-03-23T01:59:53;6.36;;;4.40;;
71174;SDS011;58876;51.994;4.472;2024-03-23T02:02:19;5.73;;;3.94;;
71174;SDS011;58876;51.994;4.472;2024-03-23T02:04:45;7.39;;;4.95;;
71174;SDS011;58876;51.994;4.472;2024-03-23T02:07:10;7.81;;;5.15;;
71174;SDS011;58876;51.994;4.472;2024-03-23T02:09:36;6.95;;;4.53;;
71174;SDS011;58876;51.994;4.472;2024-03-23T02:12:01;7.87;;;5.08;;
71174;SDS011;58876;51.994;4.472;2024-03-23T02:14:28;8.00;;;5.17;;
71174;SDS011;58876;51.994;4.472;2024-03-23T02:16:53;7.83;;;5.13;;
71174;SDS011;58876;51.994;4.472;2024-03-23T02:19:19;6.64;;;4.43;;
71174;SDS011;58876;51.994;4.472;2024-03-23T02:21:44;7.36;;;4.88;;
71174;SDS011;58876;51.994;4.472;2024-03-23T02:24:11;7.49;;;4.99;;
71174;SDS011;58876;51.994;4.472;2024-03-23T02:26:37;6.98;;;4.70;;
71174;SDS011;58876;51.994;4.472;2024-03-23T02:29:02;7.51;;;5.05;;
71174;SDS011;58876;51.994;4.472;2024-03-23T02:31:28;7.09;;;4.72;;
71174;SDS011;58876;51.994;4.472;2024-03-23T02:33:53;6.66;;;4.48;;
71174;SDS011;58876;51.994;4.472;2024-03-23T02:36:19;6.67;;;4.54;;
71174;SDS011;58876;51.994;4.472;2024-03-23T02:38:46;7.09;;;4.81;;
71174;SDS011;58876;51.994;4.472;2024-03-23T02:41:11;6.81;;;4.67;;
71174;SDS011;58876;51.994;4.472;2024-03-23T02:43:37;6.84;;;4.64;;
71174;SDS011;58876;51.994;4.472;2024-03-23T02:46:03;6.24;;;4.32;;
71174;SDS011;58876;51.994;4.472;2024-03-23T02:48:29;6.57;;;4.51;;
71174;SDS011;58876;51.994;4.472;2024-03-23T02:50:55;7.05;;;4.80;;
71174;SDS011;58876;51.994;4.472;2024-03-23T02:53:20;6.35;;;4.35;;
71174;SDS011;58876;51.994;4.472;2024-03-23T02:55:46;5.98;;;4.15;;
71174;SDS011;58876;51.994;4.472;2024-03-23T02:58:11;6.04;;;4.18;;
71174;SDS011;58876;51.994;4.472;2024-03-23T03:00:36;6.38;;;4.33;;
71174;SDS011;58876;51.994;4.472;2024-03-23T03:03:02;6.76;;;4.51;;
71174;SDS011;58876;51.994;4.472;2024-03-23T03:05:28;6.14;;;4.13;;
71174;SDS011;58876;51.994;4.472;2024-03-23T03:07:54;6.10;;;4.11;;
71174;SDS011;58876;51.994;4.472;2024-03-23T03:10:19;6.08;;;4.09;;
71174;SDS011;58876;51.994;4.472;2024-03-23T03:12:44;6.70;;;4.47;;
71174;SDS011;58876;51.994;4.472;2024-03-23T03:15:10;5.79;;;3.86;;
71174;SDS011;58876;51.994;4.472;2024-03-23T03:17:35;6.59;;;4.36;;
71174;SDS011;58876;51.994;4.472;2024-03-23T03:20:01;5.45;;;3.63;;
71174;SDS011;58876;51.994;4.472;2024-03-23T03:22:26;5.74;;;3.84;;
71174;SDS011;58876;51.994;4.472;2024-03-23T03:24:51;6.12;;;4.12;;
71174;SDS011;58876;51.994;4.472;2024-03-23T03:27:17;6.28;;;4.16;;
71174;SDS011;58876;51.994;4.472;2024-03-23T03:29:42;6.40;;;4.14;;
71174;SDS011;58876;51.994;4.472;2024-03-23T03:32:08;5.79;;;3.86;;
71174;SDS011;58876;51.994;4.472;2024-03-23T03:34:33;6.02;;;3.99;;
71174;SDS011;58876;51.994;4.472;2024-03-23T03:36:59;6.35;;;4.19;;
71174;SDS011;58876;51.994;4.472;2024-03-23T03:39:24;6.03;;;3.93;;
71174;SDS011;58876;51.994;4.472;2024-03-23T03:41:50;5.97;;;4.09;;
71174;SDS011;58876;51.994;4.472;2024-03-23T03:44:16;5.03;;;3.48;;
71174;SDS011;58876;51.994;4.472;2024-03-23T03:46:42;4.76;;;3.37;;
71174;SDS011;58876;51.994;4.472;2024-03-23T03:49:07;4.77;;;3.42;;
71174;SDS011;58876;51.994;4.472;2024-03-23T03:51:33;4.76;;;3.41;;
71174;SDS011;58876;51.994;4.472;2024-03-23T03:53:58;5.23;;;3.71;;
71174;SDS011;58876;51.994;4.472;2024-03-23T03:56:24;4.68;;;3.28;;
71174;SDS011;58876;51.994;4.472;2024-03-23T03:58:49;4.89;;;3.38;;
71174;SDS011;58876;51.994;4.472;2024-03-23T04:01:14;4.89;;;3.30;;
71174;SDS011;58876;51.994;4.472;2024-03-23T04:03:40;5.02;;;3.37;;
71174;SDS011;58876;51.994;4.472;2024-03-23T04:06:09;5.78;;;3.84;;
71174;SDS011;58876;51.994;4.472;2024-03-23T04:08:34;4.93;;;3.33;;
71174;SDS011;58876;51.994;4.472;2024-03-23T04:11:00;4.83;;;3.30;;
71174;SDS011;58876;51.994;4.472;2024-03-23T04:13:26;5.03;;;3.48;;
71174;SDS011;58876;51.994;4.472;2024-03-23T04:15:55;5.41;;;3.72;;
71174;SDS011;58876;51.994;4.472;2024-03-23T04:18:21;5.50;;;3.75;;
71174;SDS011;58876;51.994;4.472;2024-03-23T04:20:47;5.36;;;3.68;;
71174;SDS011;58876;51.994;4.472;2024-03-23T04:23:13;5.39;;;3.74;;
71174;SDS011;58876;51.994;4.472;2024-03-23T04:25:39;5.49;;;3.79;;
71174;SDS011;58876;51.994;4.472;2024-03-23T04:28:04;5.19;;;3.64;;
71174;SDS011;58876;51.994;4.472;2024-03-23T04:30:30;5.46;;;3.80;;
71174;SDS011;58876;51.994;4.472;2024-03-23T04:32:57;6.73;;;4.55;;
71174;SDS011;58876;51.994;4.472;2024-03-23T04:35:23;6.23;;;4.28;;
71174;SDS011;58876;51.994;4.472;2024-03-23T04:37:50;5.88;;;4.09;;
71174;SDS011;58876;51.994;4.472;2024-03-23T04:40:20;5.33;;;3.67;;
71174;SDS011;58876;51.994;4.472;2024-03-23T04:42:46;6.35;;;4.32;;
71174;SDS011;58876;51.994;4.472;2024-03-23T04:45:11;6.15;;;4.28;;
71174;SDS011;58876;51.994;4.472;2024-03-23T04:47:37;5.69;;;4.00;;
71174;SDS011;58876;51.994;4.472;2024-03-23T04:50:03;6.56;;;4.60;;
71174;SDS011;58876;51.994;4.472;2024-03-23T04:52:30;6.53;;;4.57;;
71174;SDS011;58876;51.994;4.472;2024-03-23T04:54:56;5.69;;;4.11;;
71174;SDS011;58876;51.994;4.472;2024-03-23T04:57:21;5.53;;;4.12;;
71174;SDS011;58876;51.994;4.472;2024-03-23T04:59:47;6.29;;;4.53;;
71174;SDS011;58876;51.994;4.472;2024-03-23T05:02:13;5.97;;;4.27;;
71174;SDS011;58876;51.994;4.472;2024-03-23T05:04:39;6.37;;;4.60;;
71174;SDS011;58876;51.994;4.472;2024-03-23T05:07:05;6.40;;;4.53;;
71174;SDS011;58876;51.994;4.472;2024-03-23T05:09:31;6.89;;;4.86;;
71174;SDS011;58876;51.994;4.472;2024-03-23T05:11:58;6.57;;;4.74;;
71174;SDS011;58876;51.994;4.472;2024-03-23T05:14:26;6.38;;;4.71;;
71174;SDS011;58876;51.994;4.472;2024-03-23T05:16:52;6.56;;;4.80;;
71174;SDS011;58876;51.994;4.472;2024-03-23T05:19:18;6.52;;;4.79;;
71174;SDS011;58876;51.994;4.472;2024-03-23T05:21:43;6.60;;;4.95;;
71174;SDS011;58876;51.994;4.472;2024-03-23T05:24:09;6.76;;;5.18;;
71174;SDS011;58876;51.994;4.472;2024-03-23T05:26:34;5.48;;;4.33;;
71174;SDS011;58876;51.994;4.472;2024-03-23T05:29:01;5.21;;;4.20;;
71174;SDS011;58876;51.994;4.472;2024-03-23T05:31:27;5.11;;;4.22;;
71174;SDS011;58876;51.994;4.472;2024-03-23T05:33:55;5.08;;;4.18;;
71174;SDS011;58876;51.994;4.472;2024-03-23T05:36:21;5.10;;;4.11;;
71174;SDS011;58876;51.994;4.472;2024-03-23T05:38:48;4.77;;;3.84;;
71174;SDS011;58876;51.994;4.472;2024-03-23T05:41:13;5.29;;;4.07;;
71174;SDS011;58876;51.994;4.472;2024-03-23T05:43:39;5.89;;;4.56;;
71174;SDS011;58876;51.994;4.472;2024-03-23T05:46:04;5.01;;;4.03;;
71174;SDS011;58876;51.994;4.472;2024-03-23T05:48:35;5.14;;;4.15;;
71174;SDS011;58876;51.994;4.472;2024-03-23T05:51:01;4.94;;;4.01;;
71174;SDS011;58876;51.994;4.472;2024-03-23T05:53:27;4.69;;;3.81;;
71174;SDS011;58876;51.994;4.472;2024-03-23T05:56:01;5.13;;;4.03;;
71174;SDS011;58876;51.994;4.472;2024-03-23T05:58:31;5.20;;;3.97;;
71174;SDS011;58876;51.994;4.472;2024-03-23T06:00:57;5.45;;;4.14;;
71174;SDS011;58876;51.994;4.472;2024-03-23T06:03:25;5.09;;;3.87;;
71174;SDS011;58876;51.994;4.472;2024-03-23T06:05:51;5.78;;;4.34;;
71174;SDS011;58876;51.994;4.472;2024-03-23T06:08:18;5.31;;;4.04;;
71174;SDS011;58876;51.994;4.472;2024-03-23T06:10:43;5.39;;;4.15;;
71174;SDS011;58876;51.994;4.472;2024-03-23T06:13:08;4.82;;;3.65;;
71174;SDS011;58876;51.994;4.472;2024-03-23T06:15:34;6.21;;;4.47;;
71174;SDS011;58876;51.994;4.472;2024-03-23T06:18:02;6.71;;;4.77;;
71174;SDS011;58876;51.994;4.472;2024-03-23T06:20:29;6.25;;;4.53;;
71174;SDS011;58876;51.994;4.472;2024-03-23T06:22:54;5.68;;;4.21;;
71174;SDS011;58876;51.994;4.472;2024-03-23T06:25:19;5.53;;;4.11;;
71174;SDS011;58876;51.994;4.472;2024-03-23T06:27:45;4.93;;;3.77;;
71174;SDS011;58876;51.994;4.472;2024-03-23T06:30:10;5.06;;;3.90;;
71174;SDS011;58876;51.994;4.472;2024-03-23T06:32:37;5.12;;;3.90;;
71174;SDS011;58876;51.994;4.472;2024-03-23T06:35:02;5.16;;;3.73;;
71174;SDS011;58876;51.994;4.472;2024-03-23T06:37:33;5.76;;;4.13;;
71174;SDS011;58876;51.994;4.472;2024-03-23T06:40:02;5.82;;;4.23;;
71174;SDS011;58876;51.994;4.472;2024-03-23T06:42:29;5.75;;;4.15;;
71174;SDS011;58876;51.994;4.472;2024-03-23T06:44:55;5.60;;;4.04;;
71174;SDS011;58876;51.994;4.472;2024-03-23T06:47:20;6.08;;;4.33;;
71174;SDS011;58876;51.994;4.472;2024-03-23T06:49:46;5.43;;;3.88;;
71174;SDS011;58876;51.994;4.472;2024-03-23T06:52:11;4.76;;;3.47;;
71174;SDS011;58876;51.994;4.472;2024-03-23T06:54:37;5.68;;;4.19;;
71174;SDS011;58876;51.994;4.472;2024-03-23T06:57:02;5.37;;;3.91;;
71174;SDS011;58876;51.994;4.472;2024-03-23T06:59:30;5.14;;;3.74;;
71174;SDS011;58876;51.994;4.472;2024-03-23T07:01:56;5.51;;;3.96;;
71174;SDS011;58876;51.994;4.472;2024-03-23T07:04:21;6.39;;;4.49;;
71174;SDS011;58876;51.994;4.472;2024-03-23T07:06:50;6.58;;;4.58;;
71174;SDS011;58876;51.994;4.472;2024-03-23T07:09:15;6.63;;;4.63;;
71174;SDS011;58876;51.994;4.472;2024-03-23T07:11:40;5.92;;;4.24;;
71174;SDS011;58876;51.994;4.472;2024-03-23T07:14:06;5.76;;;4.15;;
71174;SDS011;58876;51.994;4.472;2024-03-23T07:16:32;6.01;;;4.30;;
71174;SDS011;58876;51.994;4.472;2024-03-23T07:18:57;5.58;;;4.04;;
71174;SDS011;58876;51.994;4.472;2024-03-23T07:21:23;5.89;;;4.25;;
71174;SDS011;58876;51.994;4.472;2024-03-23T07:23:49;5.42;;;3.94;;
71174;SDS011;58876;51.994;4.472;2024-03-23T07:26:14;5.40;;;3.92;;
71174;SDS011;58876;51.994;4.472;2024-03-23T07:28:40;5.61;;;4.10;;
71174;SDS011;58876;51.994;4.472;2024-03-23T07:31:10;5.42;;;3.96;;
71174;SDS011;58876;51.994;4.472;2024-03-23T07:33:38;5.27;;;3.88;;
71174;SDS011;58876;51.994;4.472;2024-03-23T07:36:08;5.62;;;4.11;;
71174;SDS011;58876;51.994;4.472;2024-03-23T07:38:34;5.88;;;4.27;;
71174;SDS011;58876;51.994;4.472;2024-03-23T07:41:09;6.18;;;4.25;;
71174;SDS011;58876;51.994;4.472;2024-03-23T07:43:37;5.74;;;3.88;;
71174;SDS011;58876;51.994;4.472;2024-03-23T07:46:04;5.44;;;3.72;;
71174;SDS011;58876;51.994;4.472;2024-03-23T07:48:30;5.36;;;3.71;;
71174;SDS011;58876;51.994;4.472;2024-03-23T07:51:03;5.50;;;3.82;;
71174;SDS011;58876;51.994;4.472;2024-03-23T07:53:31;5.21;;;3.67;;
71174;SDS011;58876;51.994;4.472;2024-03-23T07:56:01;5.62;;;4.00;;
71174;SDS011;58876;51.994;4.472;2024-03-23T07:58:31;5.41;;;3.80;;
71174;SDS011;58876;51.994;4.472;2024-03-23T08:01:04;5.60;;;3.94;;
71174;SDS011;58876;51.994;4.472;2024-03-23T08:03:34;5.49;;;3.86;;
71174;SDS011;58876;51.994;4.472;2024-03-23T08:06:16;5.25;;;3.70;;
71174;SDS011;58876;51.994;4.472;2024-03-23T08:08:43;5.36;;;3.72;;
71174;SDS011;58876;51.994;4.472;2024-03-23T08:11:11;6.12;;;4.22;;
71174;SDS011;58876;51.994;4.472;2024-03-23T08:13:38;5.59;;;3.83;;
71174;SDS011;58876;51.994;4.472;2024-03-23T08:16:05;5.74;;;4.02;;
71174;SDS011;58876;51.994;4.472;2024-03-23T08:18:31;6.24;;;4.36;;
71174;SDS011;58876;51.994;4.472;2024-03-23T08:23:33;6.86;;;4.50;;
71174;SDS011;58876;51.994;4.472;2024-03-23T08:26:01;6.87;;;4.72;;
71174;SDS011;58876;51.994;4.472;2024-03-23T08:28:28;6.41;;;4.51;;
71174;SDS011;58876;51.994;4.472;2024-03-23T08:30:54;6.67;;;4.64;;
71174;SDS011;58876;51.994;4.472;2024-03-23T08:33:21;6.30;;;4.39;;
71174;SDS011;58876;51.994;4.472;2024-03-23T08:35:53;6.89;;;4.89;;
71174;SDS011;58876;51.994;4.472;2024-03-23T08:38:23;5.98;;;4.36;;
71174;SDS011;58876;51.994;4.472;2024-03-23T08:40:56;6.12;;;4.51;;
71174;SDS011;58876;51.994;4.472;2024-03-23T08:43:25;5.46;;;4.02;;
71174;SDS011;58876;51.994;4.472;2024-03-23T08:45:51;5.01;;;3.74;;
71174;SDS011;58876;51.994;4.472;2024-03-23T08:48:18;5.07;;;3.70;;
71174;SDS011;58876;51.994;4.472;2024-03-23T08:50:46;5.81;;;4.11;;
71174;SDS011;58876;51.994;4.472;2024-03-23T08:53:12;5.80;;;4.11;;
71174;SDS011;58876;51.994;4.472;2024-03-23T08:55:37;6.83;;;4.73;;
71174;SDS011;58876;51.994;4.472;2024-03-23T08:58:03;6.58;;;4.52;;
71174;SDS011;58876;51.994;4.472;2024-03-23T09:00:29;6.64;;;4.49;;
71174;SDS011;58876;51.994;4.472;2024-03-23T09:02:55;6.33;;;4.30;;
71174;SDS011;58876;51.994;4.472;2024-03-23T09:05:22;6.58;;;4.52;;
71174;SDS011;58876;51.994;4.472;2024-03-23T09:07:49;6.10;;;4.25;;
71174;SDS011;58876;51.994;4.472;2024-03-23T09:10:14;5.69;;;3.90;;
71174;SDS011;58876;51.994;4.472;2024-03-23T09:12:40;6.50;;;4.45;;
71174;SDS011;58876;51.994;4.472;2024-03-23T09:15:05;5.16;;;3.64;;
71174;SDS011;58876;51.994;4.472;2024-03-23T09:17:31;5.70;;;4.12;;
71174;SDS011;58876;51.994;4.472;2024-03-23T09:19:56;5.18;;;3.69;;
71174;SDS011;58876;51.994;4.472;2024-03-23T09:22:22;5.45;;;3.83;;
71174;SDS011;58876;51.994;4.472;2024-03-23T09:24:47;5.74;;;4.02;;
71174;SDS011;58876;51.994;4.472;2024-03-23T09:27:13;5.83;;;4.07;;
71174;SDS011;58876;51.994;4.472;2024-03-23T09:29:38;6.77;;;4.64;;
71174;SDS011;58876;51.994;4.472;2024-03-23T09:32:04;6.01;;;4.12;;
71174;SDS011;58876;51.994;4.472;2024-03-23T09:34:30;5.96;;;4.11;;
71174;SDS011;58876;51.994;4.472;2024-03-23T09:36:55;5.40;;;3.78;;
71174;SDS011;58876;51.994;4.472;2024-03-23T09:39:21;6.26;;;4.26;;
71174;SDS011;58876;51.994;4.472;2024-03-23T09:41:46;6.41;;;4.26;;
71174;SDS011;58876;51.994;4.472;2024-03-23T09:44:12;5.79;;;3.89;;
71174;SDS011;58876;51.994;4.472;2024-03-23T09:46:38;5.67;;;3.83;;
71174;SDS011;58876;51.994;4.472;2024-03-23T09:49:05;6.04;;;4.03;;
71174;SDS011;58876;51.994;4.472;2024-03-23T09:51:35;5.34;;;3.66;;
71174;SDS011;58876;51.994;4.472;2024-03-23T09:54:01;5.97;;;4.04;;
71174;SDS011;58876;51.994;4.472;2024-03-23T09:56:26;6.48;;;4.32;;
71174;SDS011;58876;51.994;4.472;2024-03-23T09:58:52;5.63;;;3.79;;
71174;SDS011;58876;51.994;4.472;2024-03-23T10:01:26;7.43;;;4.85;;
71174;SDS011;58876;51.994;4.472;2024-03-23T10:03:51;6.72;;;4.36;;
71174;SDS011;58876;51.994;4.472;2024-03-23T10:06:17;6.23;;;4.10;;
71174;SDS011;58876;51.994;4.472;2024-03-23T10:08:47;6.51;;;4.30;;
71174;SDS011;58876;51.994;4.472;2024-03-23T10:11:16;5.39;;;3.63;;
71174;SDS011;58876;51.994;4.472;2024-03-23T10:13:42;5.77;;;3.94;;
71174;SDS011;58876;51.994;4.472;2024-03-23T10:16:09;5.63;;;3.80;;
71174;SDS011;58876;51.994;4.472;2024-03-23T10:18:38;6.39;;;4.22;;
71174;SDS011;58876;51.994;4.472;2024-03-23T10:23:30;6.71;;;4.35;;
71174;SDS011;58876;51.994;4.472;2024-03-23T10:26:02;7.04;;;4.55;;
71174;SDS011;58876;51.994;4.472;2024-03-23T10:28:54;7.73;;;5.00;;
71174;SDS011;58876;51.994;4.472;2024-03-23T10:31:26;6.92;;;4.40;;
71174;SDS011;58876;51.994;4.472;2024-03-23T10:33:55;6.66;;;4.25;;
71174;SDS011;58876;51.994;4.472;2024-03-23T10:36:24;7.78;;;5.01;;
71174;SDS011;58876;51.994;4.472;2024-03-23T10:38:53;6.59;;;4.25;;
71174;SDS011;58876;51.994;4.472;2024-03-23T10:41:19;7.41;;;4.77;;
71174;SDS011;58876;51.994;4.472;2024-03-23T10:43:47;5.87;;;3.84;;
71174;SDS011;58876;51.994;4.472;2024-03-23T10:46:14;7.01;;;4.64;;
71174;SDS011;58876;51.994;4.472;2024-03-23T10:48:40;5.69;;;3.84;;
71174;SDS011;58876;51.994;4.472;2024-03-23T10:51:09;5.19;;;3.58;;
71174;SDS011;58876;51.994;4.472;2024-03-23T10:53:35;5.86;;;3.99;;
71174;SDS011;58876;51.994;4.472;2024-03-23T10:56:04;6.22;;;4.20;;
71174;SDS011;58876;51.994;4.472;2024-03-23T10:58:31;5.82;;;3.96;;
71174;SDS011;58876;51.994;4.472;2024-03-23T11:01:02;6.00;;;4.12;;
71174;SDS011;58876;51.994;4.472;2024-03-23T11:03:29;5.84;;;4.07;;
71174;SDS011;58876;51.994;4.472;2024-03-23T11:06:02;6.34;;;4.36;;
71174;SDS011;58876;51.994;4.472;2024-03-23T11:08:36;5.73;;;3.94;;
71174;SDS011;58876;51.994;4.472;2024-03-23T11:11:18;5.94;;;4.12;;
71174;SDS011;58876;51.994;4.472;2024-03-23T11:13:49;6.03;;;4.18;;
71174;SDS011;58876;51.994;4.472;2024-03-23T11:16:17;5.72;;;3.94;;
71174;SDS011;58876;51.994;4.472;2024-03-23T11:18:48;5.32;;;3.57;;
71174;SDS011;58876;51.994;4.472;2024-03-23T11:24:19;5.52;;;3.85;;
71174;SDS011;58876;51.994;4.472;2024-03-23T11:26:46;5.05;;;3.51;;
71174;SDS011;58876;51.994;4.472;2024-03-23T11:29:14;4.92;;;3.50;;
71174;SDS011;58876;51.994;4.472;2024-03-23T11:31:47;4.88;;;3.41;;
71174;SDS011;58876;51.994;4.472;2024-03-23T11:34:17;5.09;;;3.48;;
71174;SDS011;58876;51.994;4.472;2024-03-23T11:36:47;5.63;;;3.79;;
71174;SDS011;58876;51.994;4.472;2024-03-23T11:39:19;6.37;;;4.25;;
71174;SDS011;58876;51.994;4.472;2024-03-23T11:41:46;6.74;;;4.37;;
71174;SDS011;58876;51.994;4.472;2024-03-23T11:44:27;5.46;;;3.46;;
71174;SDS011;58876;51.994;4.472;2024-03-23T11:46:52;6.67;;;4.18;;
71174;SDS011;58876;51.994;4.472;2024-03-23T11:51:47;5.71;;;3.64;;
71174;SDS011;58876;51.994;4.472;2024-03-23T11:54:13;6.43;;;4.19;;
71174;SDS011;58876;51.994;4.472;2024-03-23T11:56:39;6.98;;;4.55;;
71174;SDS011;58876;51.994;4.472;2024-03-23T11:59:04;5.62;;;3.64;;
71174;SDS011;58876;51.994;4.472;2024-03-23T12:01:31;5.36;;;3.49;;
71174;SDS011;58876;51.994;4.472;2024-03-23T12:03:56;5.93;;;3.89;;
71174;SDS011;58876;51.994;4.472;2024-03-23T12:06:22;5.06;;;3.35;;
71174;SDS011;58876;51.994;4.472;2024-03-23T12:08:47;5.42;;;3.58;;
71174;SDS011;58876;51.994;4.472;2024-03-23T12:11:14;5.46;;;3.59;;
71174;SDS011;58876;51.994;4.472;2024-03-23T12:13:42;5.96;;;3.97;;
71174;SDS011;58876;51.994;4.472;2024-03-23T12:18:36;6.42;;;4.23;;
71174;SDS011;58876;51.994;4.472;2024-03-23T12:21:02;6.32;;;4.18;;
71174;SDS011;58876;51.994;4.472;2024-03-23T12:23:28;6.51;;;4.24;;
71174;SDS011;58876;51.994;4.472;2024-03-23T12:25:53;5.30;;;3.44;;
71174;SDS011;58876;51.994;4.472;2024-03-23T12:28:19;5.32;;;3.45;;
71174;SDS011;58876;51.994;4.472;2024-03-23T12:30:44;5.43;;;3.54;;
71174;SDS011;58876;51.994;4.472;2024-03-23T12:33:10;4.43;;;2.90;;
71174;SDS011;58876;51.994;4.472;2024-03-23T12:35:36;4.42;;;2.93;;
71174;SDS011;58876;51.994;4.472;2024-03-23T12:38:01;4.67;;;3.05;;
71174;SDS011;58876;51.994;4.472;2024-03-23T12:40:27;4.53;;;3.01;;
71174;SDS011;58876;51.994;4.472;2024-03-23T12:42:55;5.03;;;3.35;;
71174;SDS011;58876;51.994;4.472;2024-03-23T12:45:21;5.81;;;3.82;;
71174;SDS011;58876;51.994;4.472;2024-03-23T12:47:47;5.63;;;3.67;;
71174;SDS011;58876;51.994;4.472;2024-03-23T12:50:13;5.47;;;3.59;;
71174;SDS011;58876;51.994;4.472;2024-03-23T12:52:38;5.84;;;3.77;;
71174;SDS011;58876;51.994;4.472;2024-03-23T12:55:04;5.73;;;3.64;;
71174;SDS011;58876;51.994;4.472;2024-03-23T12:57:31;5.44;;;3.52;;
71174;SDS011;58876;51.994;4.472;2024-03-23T12:59:57;4.10;;;2.69;;
71174;SDS011;58876;51.994;4.472;2024-03-23T13:02:22;4.37;;;2.88;;
71174;SDS011;58876;51.994;4.472;2024-03-23T13:04:51;5.01;;;3.29;;
71174;SDS011;58876;51.994;4.472;2024-03-23T13:07:18;6.01;;;3.95;;
71174;SDS011;58876;51.994;4.472;2024-03-23T13:09:44;5.12;;;3.45;;
71174;SDS011;58876;51.994;4.472;2024-03-23T13:12:10;5.04;;;3.43;;
71174;SDS011;58876;51.994;4.472;2024-03-23T13:14:39;5.33;;;3.63;;
71174;SDS011;58876;51.994;4.472;2024-03-23T13:17:05;4.79;;;3.22;;
71174;SDS011;58876;51.994;4.472;2024-03-23T13:19:31;5.21;;;3.44;;
71174;SDS011;58876;51.994;4.472;2024-03-23T13:21:58;5.49;;;3.59;;
71174;SDS011;58876;51.994;4.472;2024-03-23T13:24:25;5.52;;;3.59;;
71174;SDS011;58876;51.994;4.472;2024-03-23T13:26:51;5.52;;;3.60;;
71174;SDS011;58876;51.994;4.472;2024-03-23T13:29:18;5.88;;;3.83;;
71174;SDS011;58876;51.994;4.472;2024-03-23T13:31:47;6.02;;;3.90;;
71174;SDS011;58876;51.994;4.472;2024-03-23T13:34:13;5.26;;;3.46;;
71174;SDS011;58876;51.994;4.472;2024-03-23T13:36:42;5.50;;;3.56;;
71174;SDS011;58876;51.994;4.472;2024-03-23T13:39:08;5.70;;;3.74;;
71174;SDS011;58876;51.994;4.472;2024-03-23T13:41:43;5.76;;;3.82;;
71174;SDS011;58876;51.994;4.472;2024-03-23T13:44:10;5.07;;;3.42;;
71174;SDS011;58876;51.994;4.472;2024-03-23T13:46:38;4.03;;;2.72;;
71174;SDS011;58876;51.994;4.472;2024-03-23T13:49:04;3.83;;;2.57;;
71174;SDS011;58876;51.994;4.472;2024-03-23T13:51:31;3.94;;;2.66;;
71174;SDS011;58876;51.994;4.472;2024-03-23T13:53:57;3.37;;;2.28;;
71174;SDS011;58876;51.994;4.472;2024-03-23T13:56:22;2.79;;;1.90;;
71174;SDS011;58876;51.994;4.472;2024-03-23T13:58:48;2.45;;;1.68;;
71174;SDS011;58876;51.994;4.472;2024-03-23T14:01:14;1.77;;;1.19;;
71174;SDS011;58876;51.994;4.472;2024-03-23T14:03:40;2.04;;;1.37;;
71174;SDS011;58876;51.994;4.472;2024-03-23T14:06:07;2.52;;;1.71;;
71174;SDS011;58876;51.994;4.472;2024-03-23T14:08:33;1.87;;;1.29;;
71174;SDS011;58876;51.994;4.472;2024-03-23T14:11:01;2.11;;;1.46;;
71174;SDS011;58876;51.994;4.472;2024-03-23T14:13:28;3.18;;;2.22;;
71174;SDS011;58876;51.994;4.472;2024-03-23T14:15:54;3.74;;;2.59;;
71174;SDS011;58876;51.994;4.472;2024-03-23T14:18:19;4.25;;;2.84;;
71174;SDS011;58876;51.994;4.472;2024-03-23T14:20:45;4.32;;;2.89;;
71174;SDS011;58876;51.994;4.472;2024-03-23T14:23:10;4.12;;;2.79;;
71174;SDS011;58876;51.994;4.472;2024-03-23T14:25:35;4.22;;;2.88;;
71174;SDS011;58876;51.994;4.472;2024-03-23T14:28:01;3.81;;;2.60;;
71174;SDS011;58876;51.994;4.472;2024-03-23T14:30:26;4.58;;;3.09;;
71174;SDS011;58876;51.994;4.472;2024-03-23T14:32:52;4.51;;;3.05;;
71174;SDS011;58876;51.994;4.472;2024-03-23T14:35:17;4.20;;;2.88;;
71174;SDS011;58876;51.994;4.472;2024-03-23T14:37:43;4.33;;;2.96;;
71174;SDS011;58876;51.994;4.472;2024-03-23T14:40:08;4.87;;;3.39;;
71174;SDS011;58876;51.994;4.472;2024-03-23T14:42:34;4.74;;;3.26;;
71174;SDS011;58876;51.994;4.472;2024-03-23T14:44:59;4.91;;;3.45;;
71174;SDS011;58876;51.994;4.472;2024-03-23T14:47:25;4.43;;;3.19;;
71174;SDS011;58876;51.994;4.472;2024-03-23T14:49:50;4.15;;;2.95;;
71174;SDS011;58876;51.994;4.472;2024-03-23T14:52:19;5.37;;;3.73;;
71174;SDS011;58876;51.994;4.472;2024-03-23T14:54:45;4.89;;;3.43;;
71174;SDS011;58876;51.994;4.472;2024-03-23T14:57:12;3.56;;;2.60;;
71174;SDS011;58876;51.994;4.472;2024-03-23T14:59:38;3.88;;;2.91;;
71174;SDS011;58876;51.994;4.472;2024-03-23T15:02:07;3.31;;;2.45;;
71174;SDS011;58876;51.994;4.472;2024-03-23T15:04:33;3.84;;;2.79;;
71174;SDS011;58876;51.994;4.472;2024-03-23T15:06:59;4.38;;;3.18;;
71174;SDS011;58876;51.994;4.472;2024-03-23T15:09:24;3.61;;;2.66;;
71174;SDS011;58876;51.994;4.472;2024-03-23T15:11:50;4.33;;;3.14;;
71174;SDS011;58876;51.994;4.472;2024-03-23T15:14:15;3.84;;;2.76;;
71174;SDS011;58876;51.994;4.472;2024-03-23T15:16:40;3.92;;;2.77;;
71174;SDS011;58876;51.994;4.472;2024-03-23T15:19:07;4.21;;;3.12;;
71174;SDS011;58876;51.994;4.472;2024-03-23T15:21:33;3.40;;;2.55;;
71174;SDS011;58876;51.994;4.472;2024-03-23T15:23:58;2.97;;;2.24;;
71174;SDS011;58876;51.994;4.472;2024-03-23T15:26:24;2.88;;;2.11;;
71174;SDS011;58876;51.994;4.472;2024-03-23T15:28:49;3.19;;;2.34;;
71174;SDS011;58876;51.994;4.472;2024-03-23T15:31:24;3.30;;;2.42;;
71174;SDS011;58876;51.994;4.472;2024-03-23T15:33:50;3.24;;;2.35;;
71174;SDS011;58876;51.994;4.472;2024-03-23T15:36:16;3.73;;;2.66;;
71174;SDS011;58876;51.994;4.472;2024-03-23T15:38:42;3.14;;;2.31;;
71174;SDS011;58876;51.994;4.472;2024-03-23T15:41:08;3.07;;;2.25;;
71174;SDS011;58876;51.994;4.472;2024-03-23T15:43:34;3.11;;;2.27;;
71174;SDS011;58876;51.994;4.472;2024-03-23T15:46:01;4.14;;;3.11;;
71174;SDS011;58876;51.994;4.472;2024-03-23T15:48:28;2.93;;;2.28;;
71174;SDS011;58876;51.994;4.472;2024-03-23T15:51:01;2.96;;;2.27;;
71174;SDS011;58876;51.994;4.472;2024-03-23T15:53:31;3.00;;;2.25;;